PWSweather.com
Personal Weather Stations
Station Observations
IROGLAN40
AalgaardNO 4330

AalgaardNO 4330

Lat: 58.773, Lon: 5.846

Elevation: 326

Station Type: Davis Vanatge Pro2

Latest ConditionsUpdated 8:30:00 PM GMT+01:01 Saturday, Jun 25, 2016
Currently Today's Max Today's Min Today's Average
Temperature 58.7°F14.8°C 66.3°F19.1°C 55.9°F13.3°C 59.9°F15.5°C
Dew Point 54.5°F12.5°C 59.6°F15.3°C 52.4°F11.3°C 55.2°F12.9°C
Winds 2.3 mph WNW3.7 kmh WNW 5.8 mph WNW9.3 kmh WNW - 2.0 mph 3.2 kmh
Wind Gusts 3.5 mph5.6 kmh 9.2 mph14.8 kmh - -
Humidity 86% 89% 76% 85%
Pressure 29.97 in1014.9 mb 30.02 in1016.6 mb 29.97 in1014.9 mb -
Hour Temp Dew Point Humidity Winds Wind Gusts Pressure Precip Precip Rate Daily Precip Total
08:30 PM 58.7°F14.8°C 54.5°F12.5°C 86% 2.3 mph WNW3.7 kmh WNW 3.5 mph5.6 kmh 29.97 in1014.9 mb - 0.00 in0.0 mm 0.00 in0.0 mm
08:20 PM 58.9°F14.9°C 54.7°F12.6°C 86% 2.3 mph W3.7 kmh W 3.5 mph5.6 kmh 29.97 in1014.9 mb - 0.00 in0.0 mm 0.00 in0.0 mm
08:10 PM 58.9°F14.9°C 54.7°F12.6°C 86% 2.3 mph W3.7 kmh W 3.5 mph5.6 kmh 29.97 in1014.9 mb - 0.00 in0.0 mm 0.00 in0.0 mm
08:00 PM 58.9°F14.9°C 54.7°F12.6°C 86% 2.3 mph WNW3.7 kmh WNW 3.5 mph5.6 kmh 29.97 in1014.9 mb - 0.00 in0.0 mm 0.00 in0.0 mm
07:50 PM 58.9°F14.9°C 54.4°F12.4°C 85% 2.3 mph WNW3.7 kmh WNW 3.5 mph5.6 kmh 29.97 in1014.9 mb - 0.00 in0.0 mm 0.00 in0.0 mm
07:40 PM 58.8°F14.9°C 54.3°F12.4°C 85% 2.3 mph WNW3.7 kmh WNW 2.3 mph3.7 kmh 29.97 in1014.9 mb - 0.00 in0.0 mm 0.00 in0.0 mm
07:30 PM 58.9°F14.9°C 54.4°F12.4°C 85% 2.3 mph WNW3.7 kmh WNW 3.5 mph5.6 kmh 29.97 in1014.9 mb - 0.00 in0.0 mm 0.00 in0.0 mm
07:20 PM 58.9°F14.9°C 54.4°F12.4°C 85% 3.5 mph W5.6 kmh W 4.6 mph7.4 kmh 29.97 in1014.9 mb - 0.00 in0.0 mm 0.00 in0.0 mm
07:10 PM 59.1°F15.1°C 54.6°F12.6°C 85% 2.3 mph WNW3.7 kmh WNW 4.6 mph7.4 kmh 29.97 in1014.9 mb - 0.00 in0.0 mm 0.00 in0.0 mm
07:00 PM 59.1°F15.1°C 54.6°F12.6°C 85% 3.5 mph W5.6 kmh W 5.8 mph9.3 kmh 29.97 in1014.9 mb - 0.00 in0.0 mm 0.00 in0.0 mm
06:50 PM 59.4°F15.2°C 54.9°F12.7°C 85% 3.5 mph WNW5.6 kmh WNW 4.6 mph7.4 kmh 29.97 in1014.9 mb - 0.00 in0.0 mm 0.00 in0.0 mm
06:40 PM 59.3°F15.2°C 54.8°F12.7°C 85% 3.5 mph NW5.6 kmh NW 3.5 mph5.6 kmh 29.97 in1014.9 mb - 0.00 in0.0 mm 0.00 in0.0 mm
05:20 PM 61.1°F16.2°C 55.9°F13.3°C 83% 3.5 mph NW5.6 kmh NW 3.5 mph5.6 kmh 29.97 in1014.9 mb - 0.00 in0.0 mm 0.00 in0.0 mm
05:10 PM 61.4°F16.3°C 55.9°F13.3°C 82% 4.6 mph WNW7.4 kmh WNW 8.1 mph13.0 kmh 29.97 in1014.9 mb - 0.00 in0.0 mm 0.00 in0.0 mm
05:00 PM 62.1°F16.7°C 56.5°F13.6°C 82% 4.6 mph WNW7.4 kmh WNW 6.9 mph11.1 kmh 29.97 in1014.9 mb - 0.00 in0.0 mm 0.00 in0.0 mm
04:50 PM 62.6°F17.0°C 56.7°F13.7°C 81% 4.6 mph W7.4 kmh W 6.9 mph11.1 kmh 29.97 in1014.9 mb - 0.00 in0.0 mm 0.00 in0.0 mm
04:40 PM 63.3°F17.4°C 57.0°F13.9°C 80% 3.5 mph W5.6 kmh W 6.9 mph11.1 kmh 29.97 in1014.9 mb - 0.00 in0.0 mm 0.00 in0.0 mm
04:30 PM 63.8°F17.7°C 57.2°F14.0°C 79% 3.5 mph WNW5.6 kmh WNW 4.6 mph7.4 kmh 29.97 in1014.9 mb - 0.00 in0.0 mm 0.00 in0.0 mm
04:20 PM 64.3°F17.9°C 57.3°F14.1°C 78% 3.5 mph W5.6 kmh W 5.8 mph9.3 kmh 29.97 in1014.9 mb - 0.00 in0.0 mm 0.00 in0.0 mm
04:10 PM 64.6°F18.1°C 57.2°F14.0°C 77% 2.3 mph W3.7 kmh W 3.5 mph5.6 kmh 29.97 in1014.9 mb - 0.00 in0.0 mm 0.00 in0.0 mm
04:00 PM 64.7°F18.2°C 57.7°F14.3°C 78% 3.5 mph W5.6 kmh W 6.9 mph11.1 kmh 29.97 in1014.9 mb - 0.00 in0.0 mm 0.00 in0.0 mm
03:50 PM 65.0°F18.3°C 58.0°F14.4°C 78% 2.3 mph WNW3.7 kmh WNW 3.5 mph5.6 kmh 29.97 in1014.9 mb - 0.00 in0.0 mm 0.00 in0.0 mm
03:40 PM 64.8°F18.2°C 57.8°F14.3°C 78% 2.3 mph W3.7 kmh W 4.6 mph7.4 kmh 29.98 in1015.2 mb - 0.00 in0.0 mm 0.00 in0.0 mm
03:30 PM 65.1°F18.4°C 57.7°F14.3°C 77% 3.5 mph W5.6 kmh W 4.6 mph7.4 kmh 29.98 in1015.2 mb - 0.00 in0.0 mm 0.00 in0.0 mm
03:20 PM 65.3°F18.5°C 57.9°F14.4°C 77% 4.6 mph WNW7.4 kmh WNW 4.6 mph7.4 kmh 29.98 in1015.2 mb - 0.00 in0.0 mm 0.00 in0.0 mm
03:10 PM 64.9°F18.3°C 57.5°F14.2°C 77% 2.3 mph WNW3.7 kmh WNW 4.6 mph7.4 kmh 29.98 in1015.2 mb - 0.00 in0.0 mm 0.00 in0.0 mm
03:00 PM 65.4°F18.6°C 57.7°F14.3°C 76% 2.3 mph W3.7 kmh W 3.5 mph5.6 kmh 29.99 in1015.6 mb - 0.00 in0.0 mm 0.00 in0.0 mm
02:50 PM 66.3°F19.1°C 59.6°F15.3°C 79% 1.2 mph W1.9 kmh W 3.5 mph5.6 kmh 29.99 in1015.6 mb - 0.00 in0.0 mm 0.00 in0.0 mm
02:40 PM 65.3°F18.5°C 58.3°F14.6°C 78% 2.3 mph W3.7 kmh W 4.6 mph7.4 kmh 30.00 in1015.9 mb - 0.00 in0.0 mm 0.00 in0.0 mm
02:30 PM 65.1°F18.4°C 58.4°F14.7°C 79% 2.3 mph WNW3.7 kmh WNW 3.5 mph5.6 kmh 30.00 in1015.9 mb - 0.00 in0.0 mm 0.00 in0.0 mm
02:20 PM 65.0°F18.3°C 58.0°F14.4°C 78% 3.5 mph W5.6 kmh W 5.8 mph9.3 kmh 30.00 in1015.9 mb - 0.00 in0.0 mm 0.00 in0.0 mm
02:10 PM 65.3°F18.5°C 57.5°F14.2°C 76% 3.5 mph WNW5.6 kmh WNW 3.5 mph5.6 kmh 30.00 in1015.9 mb - 0.00 in0.0 mm 0.00 in0.0 mm
02:00 PM 65.1°F18.4°C 58.1°F14.5°C 78% 2.3 mph W3.7 kmh W 3.5 mph5.6 kmh 30.00 in1015.9 mb - 0.00 in0.0 mm 0.00 in0.0 mm
01:50 PM 65.0°F18.3°C 58.0°F14.4°C 78% 4.6 mph W7.4 kmh W 5.8 mph9.3 kmh 30.00 in1015.9 mb - 0.00 in0.0 mm 0.00 in0.0 mm
01:40 PM 64.5°F18.1°C 57.8°F14.3°C 79% 3.5 mph W5.6 kmh W 5.8 mph9.3 kmh 30.00 in1015.9 mb - 0.00 in0.0 mm 0.00 in0.0 mm
01:30 PM 64.2°F17.9°C 57.5°F14.2°C 79% 3.5 mph WNW5.6 kmh WNW 6.9 mph11.1 kmh 30.00 in1015.9 mb - 0.00 in0.0 mm 0.00 in0.0 mm
01:20 PM 64.8°F18.2°C 58.1°F14.5°C 79% 3.5 mph W5.6 kmh W 4.6 mph7.4 kmh 30.00 in1015.9 mb - 0.00 in0.0 mm 0.00 in0.0 mm
01:10 PM 65.2°F18.4°C 59.2°F15.1°C 81% 4.6 mph NW7.4 kmh NW 8.1 mph13.0 kmh 30.00 in1015.9 mb - 0.00 in0.0 mm 0.00 in0.0 mm
01:00 PM 64.1°F17.8°C 57.8°F14.3°C 80% 5.8 mph WNW9.3 kmh WNW 6.9 mph11.1 kmh 30.01 in1016.3 mb - 0.00 in0.0 mm 0.00 in0.0 mm
12:50 PM 63.4°F17.4°C 57.4°F14.1°C 81% 3.5 mph WNW5.6 kmh WNW 5.8 mph9.3 kmh 30.00 in1015.9 mb - 0.00 in0.0 mm 0.00 in0.0 mm
12:40 PM 63.6°F17.6°C 57.6°F14.2°C 81% 4.6 mph W7.4 kmh W 5.8 mph9.3 kmh 30.00 in1015.9 mb - 0.00 in0.0 mm 0.00 in0.0 mm
12:30 PM 63.4°F17.4°C 57.5°F14.2°C 81% 4.6 mph WNW7.4 kmh WNW 6.9 mph11.1 kmh 30.01 in1016.3 mb - 0.00 in0.0 mm 0.00 in0.0 mm
12:20 PM 63.3°F17.4°C 57.3°F14.1°C 81% 3.5 mph WNW5.6 kmh WNW 5.8 mph9.3 kmh 30.01 in1016.3 mb - 0.00 in0.0 mm 0.00 in0.0 mm
12:10 PM 63.2°F17.3°C 58.0°F14.4°C 83% 4.6 mph WNW7.4 kmh WNW 9.2 mph14.8 kmh 30.01 in1016.3 mb - 0.00 in0.0 mm 0.00 in0.0 mm
12:00 PM 63.2°F17.3°C 57.3°F14.1°C 81% 3.5 mph W5.6 kmh W 5.8 mph9.3 kmh 30.01 in1016.3 mb - 0.00 in0.0 mm 0.00 in0.0 mm
11:50 AM 63.7°F17.6°C 58.1°F14.5°C 82% 4.6 mph NW7.4 kmh NW 6.9 mph11.1 kmh 30.01 in1016.3 mb - 0.00 in0.0 mm 0.00 in0.0 mm
11:40 AM 63.5°F17.5°C 58.5°F14.7°C 84% 4.6 mph W7.4 kmh W 6.9 mph11.1 kmh 30.02 in1016.6 mb - 0.00 in0.0 mm 0.00 in0.0 mm
11:30 AM 61.3°F16.3°C 56.8°F13.8°C 85% 4.6 mph W7.4 kmh W 8.1 mph13.0 kmh 30.01 in1016.3 mb - 0.00 in0.0 mm 0.00 in0.0 mm
11:20 AM 61.3°F16.3°C 56.8°F13.8°C 85% 2.3 mph WNW3.7 kmh WNW 6.9 mph11.1 kmh 30.02 in1016.6 mb - 0.00 in0.0 mm 0.00 in0.0 mm
11:10 AM 61.9°F16.6°C 57.6°F14.2°C 86% 4.6 mph W7.4 kmh W 6.9 mph11.1 kmh 30.02 in1016.6 mb - 0.00 in0.0 mm 0.00 in0.0 mm
11:00 AM 62.2°F16.8°C 56.7°F13.7°C 82% 4.6 mph WNW7.4 kmh WNW 9.2 mph14.8 kmh 30.02 in1016.6 mb - 0.00 in0.0 mm 0.00 in0.0 mm
10:50 AM 63.8°F17.7°C 57.1°F13.9°C 79% 4.6 mph WSW7.4 kmh WSW 6.9 mph11.1 kmh 30.02 in1016.6 mb - 0.00 in0.0 mm 0.00 in0.0 mm
10:40 AM 64.9°F18.3°C 58.2°F14.6°C 79% 2.3 mph W3.7 kmh W 5.8 mph9.3 kmh 30.01 in1016.3 mb - 0.00 in0.0 mm 0.00 in0.0 mm
10:30 AM 63.4°F17.4°C 57.1°F13.9°C 80% 1.2 mph NW1.9 kmh NW 1.2 mph1.9 kmh 30.02 in1016.6 mb - 0.00 in0.0 mm 0.00 in0.0 mm
10:20 AM 63.8°F17.7°C 57.5°F14.2°C 80% 2.3 mph W3.7 kmh W 4.6 mph7.4 kmh 30.02 in1016.6 mb - 0.00 in0.0 mm 0.00 in0.0 mm
10:10 AM 64.0°F17.8°C 58.4°F14.7°C 82% 1.2 mph W1.9 kmh W 1.2 mph1.9 kmh 30.02 in1016.6 mb - 0.00 in0.0 mm 0.00 in0.0 mm
10:00 AM 63.3°F17.4°C 58.1°F14.5°C 83% 1.2 mph WSW1.9 kmh WSW 3.5 mph5.6 kmh 30.02 in1016.6 mb - 0.00 in0.0 mm 0.00 in0.0 mm
09:50 AM 61.9°F16.6°C 57.7°F14.3°C 86% Calm Calm 1.2 mph1.9 kmh 30.02 in1016.6 mb - 0.00 in0.0 mm 0.00 in0.0 mm
09:40 AM 61.5°F16.4°C 57.2°F14.0°C 86% 2.3 mph W3.7 kmh W 3.5 mph5.6 kmh 30.01 in1016.3 mb - 0.00 in0.0 mm 0.00 in0.0 mm
09:30 AM 61.0°F16.1°C 57.1°F13.9°C 87% 3.5 mph W5.6 kmh W 4.6 mph7.4 kmh 30.01 in1016.3 mb - 0.00 in0.0 mm 0.00 in0.0 mm
09:20 AM 60.9°F16.1°C 57.3°F14.1°C 88% 1.2 mph WNW1.9 kmh WNW 3.5 mph5.6 kmh 30.02 in1016.6 mb - 0.00 in0.0 mm 0.00 in0.0 mm
09:10 AM 60.2°F15.7°C 56.9°F13.8°C 89% 1.2 mph W1.9 kmh W 2.3 mph3.7 kmh 30.02 in1016.6 mb - 0.00 in0.0 mm 0.00 in0.0 mm
09:00 AM 59.6°F15.3°C 56.4°F13.6°C 89% 2.3 mph W3.7 kmh W 3.5 mph5.6 kmh 30.02 in1016.6 mb - 0.00 in0.0 mm 0.00 in0.0 mm
08:50 AM 58.9°F14.9°C 55.7°F13.2°C 89% 1.2 mph WSW1.9 kmh WSW 3.5 mph5.6 kmh 30.02 in1016.6 mb - 0.00 in0.0 mm 0.00 in0.0 mm
08:40 AM 58.4°F14.7°C 55.2°F12.9°C 89% 2.3 mph WSW3.7 kmh WSW 3.5 mph5.6 kmh 30.02 in1016.6 mb - 0.00 in0.0 mm 0.00 in0.0 mm
08:30 AM 58.0°F14.4°C 54.8°F12.7°C 89% 3.5 mph WNW5.6 kmh WNW 3.5 mph5.6 kmh 30.02 in1016.6 mb - 0.00 in0.0 mm 0.00 in0.0 mm
08:20 AM 57.9°F14.4°C 54.7°F12.6°C 89% 3.5 mph WNW5.6 kmh WNW 4.6 mph7.4 kmh 30.02 in1016.6 mb - 0.00 in0.0 mm 0.00 in0.0 mm
08:10 AM 57.5°F14.2°C 54.3°F12.4°C 89% 2.3 mph WNW3.7 kmh WNW 3.5 mph5.6 kmh 30.02 in1016.6 mb - 0.00 in0.0 mm 0.00 in0.0 mm
08:00 AM 57.7°F14.3°C 54.5°F12.5°C 89% 2.3 mph W3.7 kmh W 3.5 mph5.6 kmh 30.02 in1016.6 mb - 0.00 in0.0 mm 0.00 in0.0 mm
07:50 AM 57.8°F14.3°C 54.3°F12.4°C 88% 2.3 mph NW3.7 kmh NW 4.6 mph7.4 kmh 30.02 in1016.6 mb - 0.00 in0.0 mm 0.00 in0.0 mm
07:40 AM 57.6°F14.2°C 54.4°F12.4°C 89% 1.2 mph WSW1.9 kmh WSW 2.3 mph3.7 kmh 30.01 in1016.3 mb - 0.00 in0.0 mm 0.00 in0.0 mm
07:30 AM 57.6°F14.2°C 54.1°F12.3°C 88% 1.2 mph WSW1.9 kmh WSW 2.3 mph3.7 kmh 30.02 in1016.6 mb - 0.00 in0.0 mm 0.00 in0.0 mm
07:20 AM 57.4°F14.1°C 53.9°F12.2°C 88% 2.3 mph WSW3.7 kmh WSW 2.3 mph3.7 kmh 30.02 in1016.6 mb - 0.00 in0.0 mm 0.00 in0.0 mm
07:10 AM 56.7°F13.7°C 53.5°F11.9°C 89% Calm Calm -- 30.02 in1016.6 mb - 0.00 in0.0 mm 0.00 in0.0 mm
07:00 AM 56.4°F13.6°C 52.9°F11.6°C 88% 1.2 mph WSW1.9 kmh WSW 1.2 mph1.9 kmh 30.00 in1015.9 mb - 0.00 in0.0 mm 0.00 in0.0 mm
06:50 AM 56.2°F13.4°C 52.7°F11.5°C 88% 1.2 mph WSW1.9 kmh WSW 1.2 mph1.9 kmh 30.00 in1015.9 mb - 0.00 in0.0 mm 0.00 in0.0 mm
06:40 AM 56.2°F13.4°C 52.7°F11.5°C 88% 1.2 mph WSW1.9 kmh WSW 2.3 mph3.7 kmh 30.01 in1016.3 mb - 0.00 in0.0 mm 0.00 in0.0 mm
06:30 AM 56.0°F13.3°C 52.9°F11.6°C 89% Calm Calm 1.2 mph1.9 kmh 30.01 in1016.3 mb - 0.00 in0.0 mm 0.00 in0.0 mm
06:20 AM 56.1°F13.4°C 52.6°F11.4°C 88% 1.2 mph WSW1.9 kmh WSW 1.2 mph1.9 kmh 30.01 in1016.3 mb - 0.00 in0.0 mm 0.00 in0.0 mm
06:10 AM 55.9°F13.3°C 52.7°F11.5°C 89% 1.2 mph WSW1.9 kmh WSW 1.2 mph1.9 kmh 30.02 in1016.6 mb - 0.00 in0.0 mm 0.00 in0.0 mm
06:00 AM 56.0°F13.3°C 52.8°F11.6°C 89% 1.2 mph WSW1.9 kmh WSW 1.2 mph1.9 kmh 30.01 in1016.3 mb - 0.00 in0.0 mm 0.00 in0.0 mm
05:50 AM 56.0°F13.3°C 52.5°F11.4°C 88% Calm Calm 1.2 mph1.9 kmh 30.01 in1016.3 mb - 0.00 in0.0 mm 0.00 in0.0 mm
05:40 AM 56.0°F13.3°C 52.5°F11.4°C 88% Calm Calm 1.2 mph1.9 kmh 30.01 in1016.3 mb - 0.00 in0.0 mm 0.00 in0.0 mm
05:30 AM 56.0°F13.3°C 52.5°F11.4°C 88% Calm Calm 2.3 mph3.7 kmh 30.01 in1016.3 mb - 0.00 in0.0 mm 0.00 in0.0 mm
05:20 AM 56.0°F13.3°C 52.5°F11.4°C 88% Calm Calm 2.3 mph3.7 kmh 30.00 in1015.9 mb - 0.00 in0.0 mm 0.00 in0.0 mm
05:10 AM 56.0°F13.3°C 52.8°F11.6°C 89% 2.3 mph WNW3.7 kmh WNW 3.5 mph5.6 kmh 30.00 in1015.9 mb - 0.00 in0.0 mm 0.00 in0.0 mm
05:00 AM 56.1°F13.4°C 52.6°F11.4°C 88% 1.2 mph WSW1.9 kmh WSW 2.3 mph3.7 kmh 30.00 in1015.9 mb - 0.00 in0.0 mm 0.00 in0.0 mm
04:50 AM 56.1°F13.4°C 52.6°F11.4°C 88% Calm Calm -- 30.00 in1015.9 mb - 0.00 in0.0 mm 0.00 in0.0 mm
04:40 AM 56.1°F13.4°C 52.6°F11.4°C 88% Calm Calm -- 30.00 in1015.9 mb - 0.00 in0.0 mm 0.00 in0.0 mm
04:30 AM 56.0°F13.3°C 52.5°F11.4°C 88% Calm Calm -- 30.00 in1015.9 mb - 0.00 in0.0 mm 0.00 in0.0 mm
04:20 AM 55.9°F13.3°C 52.4°F11.3°C 88% Calm Calm -- 30.00 in1015.9 mb - 0.00 in0.0 mm 0.00 in0.0 mm
04:10 AM 55.9°F13.3°C 52.7°F11.5°C 89% Calm Calm -- 29.99 in1015.6 mb - 0.00 in0.0 mm 0.00 in0.0 mm
04:00 AM 55.9°F13.3°C 52.4°F11.3°C 88% Calm Calm -- 29.99 in1015.6 mb - 0.00 in0.0 mm 0.00 in0.0 mm
03:50 AM 55.9°F13.3°C 52.7°F11.5°C 89% 1.2 mph WSW1.9 kmh WSW 2.3 mph3.7 kmh 29.99 in1015.6 mb - 0.00 in0.0 mm 0.00 in0.0 mm
03:40 AM 56.0°F13.3°C 52.5°F11.4°C 88% Calm Calm -- 29.99 in1015.6 mb - 0.00 in0.0 mm 0.00 in0.0 mm
03:30 AM 56.0°F13.3°C 52.5°F11.4°C 88% Calm Calm -- 29.99 in1015.6 mb - 0.00 in0.0 mm 0.00 in0.0 mm
03:20 AM 56.0°F13.3°C 52.5°F11.4°C 88% Calm Calm -- 29.99 in1015.6 mb - 0.00 in0.0 mm 0.00 in0.0 mm
03:10 AM 56.2°F13.4°C 52.7°F11.5°C 88% Calm Calm -- 29.99 in1015.6 mb - 0.00 in0.0 mm 0.00 in0.0 mm
03:00 AM 56.2°F13.4°C 52.7°F11.5°C 88% Calm Calm -- 29.99 in1015.6 mb - 0.00 in0.0 mm 0.00 in0.0 mm
02:50 AM 56.3°F13.5°C 52.8°F11.6°C 88% Calm Calm -- 30.00 in1015.9 mb - 0.00 in0.0 mm 0.00 in0.0 mm
02:40 AM 56.4°F13.6°C 52.9°F11.6°C 88% 1.2 mph WSW1.9 kmh WSW 2.3 mph3.7 kmh 30.00 in1015.9 mb - 0.00 in0.0 mm 0.00 in0.0 mm
02:30 AM 56.6°F13.7°C 53.0°F11.7°C 88% Calm Calm -- 29.99 in1015.6 mb - 0.00 in0.0 mm 0.00 in0.0 mm
02:20 AM 56.6°F13.7°C 53.1°F11.7°C 88% Calm Calm -- 30.00 in1015.9 mb - 0.00 in0.0 mm 0.00 in0.0 mm
02:10 AM 56.6°F13.7°C 53.1°F11.7°C 88% Calm Calm -- 30.00 in1015.9 mb - 0.00 in0.0 mm 0.00 in0.0 mm
02:00 AM 56.6°F13.7°C 53.1°F11.7°C 88% Calm Calm 2.3 mph3.7 kmh 29.99 in1015.6 mb - 0.00 in0.0 mm 0.00 in0.0 mm
01:50 AM 56.7°F13.7°C 53.2°F11.8°C 88% Calm Calm -- 29.99 in1015.6 mb - 0.00 in0.0 mm 0.00 in0.0 mm
01:40 AM 56.7°F13.7°C 53.2°F11.8°C 88% Calm Calm -- 29.99 in1015.6 mb - 0.00 in0.0 mm 0.00 in0.0 mm
01:30 AM 56.6°F13.7°C 53.1°F11.7°C 88% Calm Calm -- 29.99 in1015.6 mb - 0.00 in0.0 mm 0.00 in0.0 mm
01:20 AM 56.7°F13.7°C 53.1°F11.7°C 88% Calm Calm 1.2 mph1.9 kmh 29.99 in1015.6 mb - 0.00 in0.0 mm 0.00 in0.0 mm
01:10 AM 56.7°F13.7°C 53.2°F11.8°C 88% Calm Calm -- 30.00 in1015.9 mb - 0.00 in0.0 mm 0.00 in0.0 mm
01:00 AM 56.7°F13.7°C 53.2°F11.8°C 88% Calm Calm -- 30.00 in1015.9 mb - 0.00 in0.0 mm 0.00 in0.0 mm
12:50 AM 56.7°F13.7°C 53.2°F11.8°C 88% Calm Calm -- 30.00 in1015.9 mb - 0.00 in0.0 mm 0.00 in0.0 mm
12:40 AM 56.7°F13.7°C 53.2°F11.8°C 88% Calm Calm 1.2 mph1.9 kmh 30.00 in1015.9 mb - 0.00 in0.0 mm 0.00 in0.0 mm
12:30 AM 56.7°F13.7°C 53.2°F11.8°C 88% Calm Calm -- 30.00 in1015.9 mb - 0.00 in0.0 mm 0.00 in0.0 mm
12:20 AM 56.7°F13.7°C 53.2°F11.8°C 88% Calm Calm 1.2 mph1.9 kmh 30.00 in1015.9 mb - 0.00 in0.0 mm 0.00 in0.0 mm
12:10 AM 56.8°F13.8°C 53.3°F11.8°C 88% Calm Calm 2.3 mph3.7 kmh 30.00 in1015.9 mb - 0.00 in0.0 mm 0.00 in0.0 mm
12:00 AM 56.8°F13.8°C 53.3°F11.8°C 88% Calm Calm 3.5 mph5.6 kmh 30.00 in1015.9 mb - 0.00 in0.0 mm 0.00 in0.0 mm